sensor_id;sensor_type;location;lat;lon;timestamp;P1;durP1;ratioP1;P2;durP2;ratioP2
18340;SDS011;9296;48.084;16.352;2022-08-05T00:01:33;5.90;;;4.72;;
18340;SDS011;9296;48.084;16.352;2022-08-05T00:04:00;6.75;;;4.55;;
18340;SDS011;9296;48.084;16.352;2022-08-05T00:06:29;5.40;;;4.27;;
18340;SDS011;9296;48.084;16.352;2022-08-05T00:08:56;5.47;;;4.73;;
18340;SDS011;9296;48.084;16.352;2022-08-05T00:11:24;5.60;;;4.60;;
18340;SDS011;9296;48.084;16.352;2022-08-05T00:13:51;6.28;;;4.30;;
18340;SDS011;9296;48.084;16.352;2022-08-05T00:16:18;5.80;;;4.70;;
18340;SDS011;9296;48.084;16.352;2022-08-05T00:18:47;6.97;;;4.43;;
18340;SDS011;9296;48.084;16.352;2022-08-05T00:21:15;5.00;;;4.50;;
18340;SDS011;9296;48.084;16.352;2022-08-05T00:23:45;6.75;;;4.60;;
18340;SDS011;9296;48.084;16.352;2022-08-05T00:29:34;8.00;;;4.72;;
18340;SDS011;9296;48.084;16.352;2022-08-05T00:32:02;6.55;;;4.80;;
18340;SDS011;9296;48.084;16.352;2022-08-05T00:34:30;5.03;;;4.45;;
18340;SDS011;9296;48.084;16.352;2022-08-05T00:36:57;6.15;;;4.47;;
18340;SDS011;9296;48.084;16.352;2022-08-05T00:39:26;7.38;;;4.95;;
18340;SDS011;9296;48.084;16.352;2022-08-05T00:44:56;7.20;;;4.77;;
18340;SDS011;9296;48.084;16.352;2022-08-05T00:47:24;7.10;;;4.70;;
18340;SDS011;9296;48.084;16.352;2022-08-05T00:49:51;6.25;;;5.00;;
18340;SDS011;9296;48.084;16.352;2022-08-05T00:52:18;5.47;;;4.95;;
18340;SDS011;9296;48.084;16.352;2022-08-05T00:54:47;6.88;;;4.72;;
18340;SDS011;9296;48.084;16.352;2022-08-05T00:57:14;5.05;;;4.50;;
18340;SDS011;9296;48.084;16.352;2022-08-05T00:59:41;6.70;;;5.20;;
18340;SDS011;9296;48.084;16.352;2022-08-05T01:02:09;6.00;;;4.67;;
18340;SDS011;9296;48.084;16.352;2022-08-05T01:04:36;5.95;;;4.72;;
18340;SDS011;9296;48.084;16.352;2022-08-05T01:07:05;6.15;;;4.82;;
18340;SDS011;9296;48.084;16.352;2022-08-05T01:09:32;6.53;;;4.50;;
18340;SDS011;9296;48.084;16.352;2022-08-05T01:12:01;6.25;;;4.88;;
18340;SDS011;9296;48.084;16.352;2022-08-05T01:14:31;6.50;;;4.80;;
18340;SDS011;9296;48.084;16.352;2022-08-05T01:17:01;5.65;;;4.57;;
18340;SDS011;9296;48.084;16.352;2022-08-05T01:19:33;7.50;;;5.15;;
18340;SDS011;9296;48.084;16.352;2022-08-05T01:22:12;5.60;;;5.00;;
18340;SDS011;9296;48.084;16.352;2022-08-05T01:24:46;5.53;;;4.93;;
18340;SDS011;9296;48.084;16.352;2022-08-05T01:33:14;5.97;;;5.38;;
18340;SDS011;9296;48.084;16.352;2022-08-05T01:35:43;6.95;;;5.10;;
18340;SDS011;9296;48.084;16.352;2022-08-05T01:38:11;5.32;;;4.80;;
18340;SDS011;9296;48.084;16.352;2022-08-05T01:40:39;7.67;;;5.17;;
18340;SDS011;9296;48.084;16.352;2022-08-05T01:46:10;7.32;;;5.20;;
18340;SDS011;9296;48.084;16.352;2022-08-05T01:48:39;5.90;;;5.30;;
18340;SDS011;9296;48.084;16.352;2022-08-05T01:51:06;6.20;;;4.82;;
18340;SDS011;9296;48.084;16.352;2022-08-05T01:53:35;7.22;;;5.15;;
18340;SDS011;9296;48.084;16.352;2022-08-05T01:56:02;5.68;;;5.07;;
18340;SDS011;9296;48.084;16.352;2022-08-05T02:01:34;6.43;;;5.50;;
18340;SDS011;9296;48.084;16.352;2022-08-05T02:04:03;5.88;;;5.38;;
18340;SDS011;9296;48.084;16.352;2022-08-05T02:06:31;6.97;;;5.40;;
18340;SDS011;9296;48.084;16.352;2022-08-05T02:08:59;6.28;;;5.35;;
18340;SDS011;9296;48.084;16.352;2022-08-05T02:14:29;6.20;;;5.60;;
18340;SDS011;9296;48.084;16.352;2022-08-05T02:17:00;5.93;;;5.30;;
18340;SDS011;9296;48.084;16.352;2022-08-05T02:19:32;6.65;;;5.63;;
18340;SDS011;9296;48.084;16.352;2022-08-05T02:22:03;9.43;;;5.25;;
18340;SDS011;9296;48.084;16.352;2022-08-05T02:24:33;7.30;;;5.30;;
18340;SDS011;9296;48.084;16.352;2022-08-05T02:27:02;8.43;;;5.40;;
18340;SDS011;9296;48.084;16.352;2022-08-05T02:29:30;6.95;;;5.70;;
18340;SDS011;9296;48.084;16.352;2022-08-05T02:32:00;7.38;;;5.35;;
18340;SDS011;9296;48.084;16.352;2022-08-05T02:34:28;7.03;;;5.40;;
18340;SDS011;9296;48.084;16.352;2022-08-05T02:36:57;7.30;;;5.38;;
18340;SDS011;9296;48.084;16.352;2022-08-05T02:39:26;6.30;;;5.60;;
18340;SDS011;9296;48.084;16.352;2022-08-05T02:42:11;6.15;;;5.40;;
18340;SDS011;9296;48.084;16.352;2022-08-05T02:44:39;6.90;;;5.40;;
18340;SDS011;9296;48.084;16.352;2022-08-05T02:47:07;6.30;;;5.43;;
18340;SDS011;9296;48.084;16.352;2022-08-05T02:49:35;7.40;;;5.65;;
18340;SDS011;9296;48.084;16.352;2022-08-05T02:52:06;6.57;;;5.65;;
18340;SDS011;9296;48.084;16.352;2022-08-05T02:54:33;7.15;;;6.15;;
18340;SDS011;9296;48.084;16.352;2022-08-05T02:57:01;7.43;;;6.05;;
18340;SDS011;9296;48.084;16.352;2022-08-05T02:59:29;6.93;;;6.20;;
18340;SDS011;9296;48.084;16.352;2022-08-05T03:01:57;6.38;;;5.78;;
18340;SDS011;9296;48.084;16.352;2022-08-05T03:04:25;6.53;;;5.90;;
18340;SDS011;9296;48.084;16.352;2022-08-05T03:06:53;7.00;;;6.25;;
18340;SDS011;9296;48.084;16.352;2022-08-05T03:09:22;7.32;;;5.88;;
18340;SDS011;9296;48.084;16.352;2022-08-05T03:14:52;9.20;;;6.00;;
18340;SDS011;9296;48.084;16.352;2022-08-05T03:17:19;6.60;;;5.72;;
18340;SDS011;9296;48.084;16.352;2022-08-05T03:19:46;7.50;;;5.80;;
18340;SDS011;9296;48.084;16.352;2022-08-05T03:22:13;6.38;;;5.75;;
18340;SDS011;9296;48.084;16.352;2022-08-05T03:24:42;9.85;;;5.80;;
18340;SDS011;9296;48.084;16.352;2022-08-05T03:29:56;7.13;;;6.00;;
18340;SDS011;9296;48.084;16.352;2022-08-05T03:32:23;9.13;;;6.00;;
18340;SDS011;9296;48.084;16.352;2022-08-05T03:34:51;6.95;;;5.70;;
18340;SDS011;9296;48.084;16.352;2022-08-05T03:37:18;6.55;;;5.70;;
18340;SDS011;9296;48.084;16.352;2022-08-05T03:39:54;6.25;;;5.40;;
18340;SDS011;9296;48.084;16.352;2022-08-05T03:42:22;6.27;;;5.67;;
18340;SDS011;9296;48.084;16.352;2022-08-05T03:44:49;7.25;;;5.72;;
18340;SDS011;9296;48.084;16.352;2022-08-05T04:02:00;8.57;;;6.30;;
18340;SDS011;9296;48.084;16.352;2022-08-05T04:04:28;6.82;;;6.10;;
18340;SDS011;9296;48.084;16.352;2022-08-05T04:06:56;7.25;;;6.20;;
18340;SDS011;9296;48.084;16.352;2022-08-05T04:09:24;6.78;;;6.00;;
18340;SDS011;9296;48.084;16.352;2022-08-05T04:17:43;8.82;;;6.20;;
18340;SDS011;9296;48.084;16.352;2022-08-05T04:20:15;7.50;;;5.88;;
18340;SDS011;9296;48.084;16.352;2022-08-05T04:22:43;7.25;;;5.55;;
18340;SDS011;9296;48.084;16.352;2022-08-05T04:25:11;7.22;;;6.18;;
18340;SDS011;9296;48.084;16.352;2022-08-05T04:30:42;6.45;;;5.80;;
18340;SDS011;9296;48.084;16.352;2022-08-05T04:33:10;7.93;;;6.50;;
18340;SDS011;9296;48.084;16.352;2022-08-05T04:35:38;7.90;;;6.78;;
18340;SDS011;9296;48.084;16.352;2022-08-05T04:38:05;8.35;;;6.07;;
18340;SDS011;9296;48.084;16.352;2022-08-05T04:40:32;7.68;;;6.60;;
18340;SDS011;9296;48.084;16.352;2022-08-05T04:46:04;7.45;;;6.65;;
18340;SDS011;9296;48.084;16.352;2022-08-05T04:48:33;7.60;;;6.28;;
18340;SDS011;9296;48.084;16.352;2022-08-05T04:51:00;7.20;;;6.50;;
18340;SDS011;9296;48.084;16.352;2022-08-05T04:53:27;9.90;;;6.97;;
18340;SDS011;9296;48.084;16.352;2022-08-05T04:55:55;7.72;;;6.93;;
18340;SDS011;9296;48.084;16.352;2022-08-05T04:58:40;8.43;;;6.30;;
18340;SDS011;9296;48.084;16.352;2022-08-05T05:01:08;8.52;;;6.78;;
18340;SDS011;9296;48.084;16.352;2022-08-05T05:03:36;8.38;;;7.57;;
18340;SDS011;9296;48.084;16.352;2022-08-05T05:06:04;8.75;;;7.85;;
18340;SDS011;9296;48.084;16.352;2022-08-05T05:08:31;10.23;;;7.20;;
18340;SDS011;9296;48.084;16.352;2022-08-05T05:10:58;7.75;;;6.53;;
18340;SDS011;9296;48.084;16.352;2022-08-05T05:16:28;8.40;;;6.93;;
18340;SDS011;9296;48.084;16.352;2022-08-05T05:18:57;8.20;;;6.90;;
18340;SDS011;9296;48.084;16.352;2022-08-05T05:21:24;11.45;;;7.10;;
18340;SDS011;9296;48.084;16.352;2022-08-05T05:23:52;10.18;;;6.57;;
18340;SDS011;9296;48.084;16.352;2022-08-05T05:26:19;7.82;;;6.38;;
18340;SDS011;9296;48.084;16.352;2022-08-05T05:28:47;9.95;;;6.63;;
18340;SDS011;9296;48.084;16.352;2022-08-05T05:31:14;10.70;;;6.53;;
18340;SDS011;9296;48.084;16.352;2022-08-05T05:33:41;8.63;;;6.88;;
18340;SDS011;9296;48.084;16.352;2022-08-05T05:36:10;8.25;;;6.18;;
18340;SDS011;9296;48.084;16.352;2022-08-05T05:38:37;10.75;;;6.82;;
18340;SDS011;9296;48.084;16.352;2022-08-05T05:41:04;6.63;;;5.93;;
18340;SDS011;9296;48.084;16.352;2022-08-05T05:43:50;7.93;;;5.90;;
18340;SDS011;9296;48.084;16.352;2022-08-05T05:46:17;7.38;;;6.65;;
18340;SDS011;9296;48.084;16.352;2022-08-05T05:48:44;6.65;;;6.05;;
18340;SDS011;9296;48.084;16.352;2022-08-05T05:51:18;7.10;;;6.07;;
18340;SDS011;9296;48.084;16.352;2022-08-05T05:53:45;7.95;;;6.70;;
18340;SDS011;9296;48.084;16.352;2022-08-05T05:56:12;9.25;;;6.70;;
18340;SDS011;9296;48.084;16.352;2022-08-05T05:58:39;6.55;;;5.88;;
18340;SDS011;9296;48.084;16.352;2022-08-05T06:01:07;6.90;;;6.20;;
18340;SDS011;9296;48.084;16.352;2022-08-05T06:03:35;8.05;;;6.05;;
18340;SDS011;9296;48.084;16.352;2022-08-05T06:06:02;7.63;;;5.65;;
18340;SDS011;9296;48.084;16.352;2022-08-05T06:08:32;7.13;;;6.47;;
18340;SDS011;9296;48.084;16.352;2022-08-05T06:10:59;7.75;;;6.32;;
18340;SDS011;9296;48.084;16.352;2022-08-05T06:13:26;8.70;;;6.72;;
18340;SDS011;9296;48.084;16.352;2022-08-05T06:15:53;9.07;;;6.60;;
18340;SDS011;9296;48.084;16.352;2022-08-05T06:18:20;10.00;;;6.60;;
18340;SDS011;9296;48.084;16.352;2022-08-05T06:20:48;9.90;;;6.60;;
18340;SDS011;9296;48.084;16.352;2022-08-05T06:23:15;7.65;;;6.43;;
18340;SDS011;9296;48.084;16.352;2022-08-05T06:25:43;8.23;;;6.55;;
18340;SDS011;9296;48.084;16.352;2022-08-05T06:28:11;10.25;;;6.40;;
18340;SDS011;9296;48.084;16.352;2022-08-05T06:30:38;9.98;;;6.43;;
18340;SDS011;9296;48.084;16.352;2022-08-05T06:33:05;9.43;;;6.78;;
18340;SDS011;9296;48.084;16.352;2022-08-05T06:35:32;8.90;;;6.63;;
18340;SDS011;9296;48.084;16.352;2022-08-05T06:37:59;8.13;;;6.53;;
18340;SDS011;9296;48.084;16.352;2022-08-05T06:40:26;9.85;;;6.30;;
18340;SDS011;9296;48.084;16.352;2022-08-05T06:42:55;11.75;;;6.57;;
18340;SDS011;9296;48.084;16.352;2022-08-05T06:45:22;9.73;;;6.32;;
18340;SDS011;9296;48.084;16.352;2022-08-05T06:47:50;12.15;;;6.30;;
18340;SDS011;9296;48.084;16.352;2022-08-05T06:50:17;7.50;;;6.65;;
18340;SDS011;9296;48.084;16.352;2022-08-05T06:52:44;11.98;;;6.20;;
18340;SDS011;9296;48.084;16.352;2022-08-05T06:55:11;7.70;;;6.28;;
18340;SDS011;9296;48.084;16.352;2022-08-05T06:57:38;7.97;;;5.80;;
18340;SDS011;9296;48.084;16.352;2022-08-05T07:00:09;8.05;;;6.13;;
18340;SDS011;9296;48.084;16.352;2022-08-05T07:02:40;8.50;;;6.18;;
18340;SDS011;9296;48.084;16.352;2022-08-05T07:05:08;6.70;;;5.93;;
18340;SDS011;9296;48.084;16.352;2022-08-05T07:07:38;7.57;;;5.72;;
18340;SDS011;9296;48.084;16.352;2022-08-05T07:10:09;7.03;;;6.10;;
18340;SDS011;9296;48.084;16.352;2022-08-05T07:12:36;5.68;;;5.18;;
18340;SDS011;9296;48.084;16.352;2022-08-05T07:15:25;7.35;;;5.65;;
18340;SDS011;9296;48.084;16.352;2022-08-05T07:18:10;7.10;;;5.57;;
18340;SDS011;9296;48.084;16.352;2022-08-05T07:20:37;8.02;;;5.47;;
18340;SDS011;9296;48.084;16.352;2022-08-05T07:23:04;6.15;;;5.57;;
18340;SDS011;9296;48.084;16.352;2022-08-05T07:25:31;6.50;;;5.18;;
18340;SDS011;9296;48.084;16.352;2022-08-05T07:30:56;10.02;;;5.35;;
18340;SDS011;9296;48.084;16.352;2022-08-05T07:33:24;8.05;;;4.90;;
18340;SDS011;9296;48.084;16.352;2022-08-05T07:35:51;7.03;;;5.13;;
18340;SDS011;9296;48.084;16.352;2022-08-05T07:38:18;6.20;;;4.63;;
18340;SDS011;9296;48.084;16.352;2022-08-05T07:40:45;6.00;;;5.00;;
18340;SDS011;9296;48.084;16.352;2022-08-05T07:43:13;5.47;;;5.07;;
18340;SDS011;9296;48.084;16.352;2022-08-05T07:45:40;6.45;;;5.13;;
18340;SDS011;9296;48.084;16.352;2022-08-05T07:48:09;5.70;;;4.88;;
18340;SDS011;9296;48.084;16.352;2022-08-05T07:50:36;5.22;;;4.78;;
18340;SDS011;9296;48.084;16.352;2022-08-05T07:53:04;7.78;;;5.25;;
18340;SDS011;9296;48.084;16.352;2022-08-05T07:55:31;9.63;;;5.68;;
18340;SDS011;9296;48.084;16.352;2022-08-05T07:57:58;7.32;;;4.45;;
18340;SDS011;9296;48.084;16.352;2022-08-05T08:00:25;5.68;;;5.18;;
18340;SDS011;9296;48.084;16.352;2022-08-05T08:02:53;7.18;;;4.97;;
18340;SDS011;9296;48.084;16.352;2022-08-05T08:05:21;5.13;;;4.70;;
18340;SDS011;9296;48.084;16.352;2022-08-05T08:07:49;5.40;;;4.90;;
18340;SDS011;9296;48.084;16.352;2022-08-05T08:10:17;10.88;;;4.72;;
18340;SDS011;9296;48.084;16.352;2022-08-05T08:12:44;5.00;;;4.50;;
18340;SDS011;9296;48.084;16.352;2022-08-05T08:15:10;5.88;;;4.65;;
18340;SDS011;9296;48.084;16.352;2022-08-05T08:17:37;5.10;;;4.30;;
18340;SDS011;9296;48.084;16.352;2022-08-05T08:20:04;6.40;;;4.50;;
18340;SDS011;9296;48.084;16.352;2022-08-05T08:22:33;5.75;;;4.20;;
18340;SDS011;9296;48.084;16.352;2022-08-05T08:25:00;7.43;;;4.35;;
18340;SDS011;9296;48.084;16.352;2022-08-05T08:27:27;5.82;;;4.35;;
18340;SDS011;9296;48.084;16.352;2022-08-05T08:29:54;6.43;;;4.30;;
18340;SDS011;9296;48.084;16.352;2022-08-05T08:32:21;5.47;;;3.92;;
18340;SDS011;9296;48.084;16.352;2022-08-05T08:34:48;5.70;;;4.30;;
18340;SDS011;9296;48.084;16.352;2022-08-05T08:37:15;5.38;;;4.13;;
18340;SDS011;9296;48.084;16.352;2022-08-05T08:39:44;7.47;;;4.00;;
18340;SDS011;9296;48.084;16.352;2022-08-05T08:42:12;6.07;;;4.10;;
18340;SDS011;9296;48.084;16.352;2022-08-05T08:47:27;4.70;;;3.72;;
18340;SDS011;9296;48.084;16.352;2022-08-05T08:49:56;4.80;;;4.10;;
18340;SDS011;9296;48.084;16.352;2022-08-05T08:52:24;4.20;;;3.80;;
18340;SDS011;9296;48.084;16.352;2022-08-05T08:54:52;4.10;;;3.80;;
18340;SDS011;9296;48.084;16.352;2022-08-05T08:57:20;5.28;;;3.80;;
18340;SDS011;9296;48.084;16.352;2022-08-05T08:59:48;7.93;;;3.78;;
18340;SDS011;9296;48.084;16.352;2022-08-05T09:02:16;5.13;;;3.65;;
18340;SDS011;9296;48.084;16.352;2022-08-05T09:04:45;5.67;;;3.70;;
18340;SDS011;9296;48.084;16.352;2022-08-05T09:07:13;3.95;;;3.30;;
18340;SDS011;9296;48.084;16.352;2022-08-05T09:09:40;4.10;;;3.72;;
18340;SDS011;9296;48.084;16.352;2022-08-05T09:12:09;4.85;;;3.67;;
18340;SDS011;9296;48.084;16.352;2022-08-05T09:14:37;6.10;;;3.67;;
18340;SDS011;9296;48.084;16.352;2022-08-05T09:17:04;5.32;;;3.70;;
18340;SDS011;9296;48.084;16.352;2022-08-05T09:19:32;4.38;;;3.50;;
18340;SDS011;9296;48.084;16.352;2022-08-05T09:21:59;5.65;;;3.75;;
18340;SDS011;9296;48.084;16.352;2022-08-05T09:24:26;6.40;;;3.60;;
18340;SDS011;9296;48.084;16.352;2022-08-05T09:26:55;5.10;;;3.50;;
18340;SDS011;9296;48.084;16.352;2022-08-05T09:29:36;5.50;;;3.60;;
18340;SDS011;9296;48.084;16.352;2022-08-05T09:32:03;6.10;;;3.70;;
18340;SDS011;9296;48.084;16.352;2022-08-05T09:34:44;4.90;;;4.18;;
18340;SDS011;9296;48.084;16.352;2022-08-05T09:37:15;4.53;;;3.70;;
18340;SDS011;9296;48.084;16.352;2022-08-05T09:39:43;3.72;;;3.33;;
18340;SDS011;9296;48.084;16.352;2022-08-05T09:42:10;3.63;;;3.33;;
18340;SDS011;9296;48.084;16.352;2022-08-05T09:44:41;5.07;;;3.63;;
18340;SDS011;9296;48.084;16.352;2022-08-05T09:47:12;4.90;;;3.33;;
18340;SDS011;9296;48.084;16.352;2022-08-05T09:49:40;5.72;;;3.65;;
18340;SDS011;9296;48.084;16.352;2022-08-05T09:52:17;3.97;;;3.60;;
18340;SDS011;9296;48.084;16.352;2022-08-05T09:54:52;5.47;;;3.20;;
18340;SDS011;9296;48.084;16.352;2022-08-05T09:57:30;4.13;;;3.40;;
18340;SDS011;9296;48.084;16.352;2022-08-05T10:00:00;5.63;;;3.63;;
18340;SDS011;9296;48.084;16.352;2022-08-05T10:02:34;5.00;;;3.28;;
18340;SDS011;9296;48.084;16.352;2022-08-05T10:05:07;5.65;;;3.60;;
18340;SDS011;9296;48.084;16.352;2022-08-05T10:07:45;3.35;;;3.15;;
18340;SDS011;9296;48.084;16.352;2022-08-05T10:10:13;3.63;;;3.38;;
18340;SDS011;9296;48.084;16.352;2022-08-05T10:12:41;3.60;;;3.40;;
18340;SDS011;9296;48.084;16.352;2022-08-05T10:15:14;4.20;;;3.47;;
18340;SDS011;9296;48.084;16.352;2022-08-05T10:17:42;5.32;;;3.80;;
18340;SDS011;9296;48.084;16.352;2022-08-05T10:20:09;5.68;;;3.50;;
18340;SDS011;9296;48.084;16.352;2022-08-05T10:22:38;4.20;;;3.80;;
18340;SDS011;9296;48.084;16.352;2022-08-05T10:25:06;6.38;;;3.60;;
18340;SDS011;9296;48.084;16.352;2022-08-05T10:27:34;4.20;;;3.83;;
18340;SDS011;9296;48.084;16.352;2022-08-05T10:33:05;4.00;;;3.60;;
18340;SDS011;9296;48.084;16.352;2022-08-05T10:35:34;3.97;;;3.67;;
18340;SDS011;9296;48.084;16.352;2022-08-05T10:38:01;3.88;;;3.58;;
18340;SDS011;9296;48.084;16.352;2022-08-05T10:40:31;4.68;;;3.70;;
18340;SDS011;9296;48.084;16.352;2022-08-05T10:43:01;6.47;;;3.40;;
18340;SDS011;9296;48.084;16.352;2022-08-05T10:45:37;5.00;;;3.65;;
18340;SDS011;9296;48.084;16.352;2022-08-05T10:50:57;3.80;;;3.50;;
18340;SDS011;9296;48.084;16.352;2022-08-05T10:53:38;4.68;;;3.63;;
18340;SDS011;9296;48.084;16.352;2022-08-05T10:56:08;5.53;;;3.97;;
18340;SDS011;9296;48.084;16.352;2022-08-05T10:58:46;4.82;;;3.80;;
18340;SDS011;9296;48.084;16.352;2022-08-05T11:01:14;5.60;;;3.78;;
18340;SDS011;9296;48.084;16.352;2022-08-05T11:06:29;3.90;;;3.50;;
18340;SDS011;9296;48.084;16.352;2022-08-05T11:09:12;8.13;;;3.50;;
18340;SDS011;9296;48.084;16.352;2022-08-05T11:11:40;4.82;;;3.95;;
18340;SDS011;9296;48.084;16.352;2022-08-05T11:14:09;5.95;;;3.60;;
18340;SDS011;9296;48.084;16.352;2022-08-05T11:16:37;6.00;;;3.83;;
18340;SDS011;9296;48.084;16.352;2022-08-05T11:19:23;4.22;;;3.80;;
18340;SDS011;9296;48.084;16.352;2022-08-05T11:21:51;4.03;;;3.63;;
18340;SDS011;9296;48.084;16.352;2022-08-05T11:24:19;6.90;;;4.10;;
18340;SDS011;9296;48.084;16.352;2022-08-05T11:26:47;5.53;;;3.97;;
18340;SDS011;9296;48.084;16.352;2022-08-05T11:32:28;5.57;;;3.88;;
18340;SDS011;9296;48.084;16.352;2022-08-05T11:34:55;4.63;;;4.00;;
18340;SDS011;9296;48.084;16.352;2022-08-05T11:37:43;4.93;;;4.43;;
18340;SDS011;9296;48.084;16.352;2022-08-05T11:43:18;5.20;;;4.70;;
18340;SDS011;9296;48.084;16.352;2022-08-05T11:45:46;4.72;;;4.30;;
18340;SDS011;9296;48.084;16.352;2022-08-05T11:48:13;4.57;;;3.95;;
18340;SDS011;9296;48.084;16.352;2022-08-05T11:50:40;4.63;;;3.88;;
18340;SDS011;9296;48.084;16.352;2022-08-05T11:53:09;5.40;;;4.30;;
18340;SDS011;9296;48.084;16.352;2022-08-05T11:55:36;4.90;;;4.00;;
18340;SDS011;9296;48.084;16.352;2022-08-05T11:58:03;5.40;;;4.30;;
18340;SDS011;9296;48.084;16.352;2022-08-05T12:00:30;6.43;;;4.65;;
18340;SDS011;9296;48.084;16.352;2022-08-05T12:02:57;4.47;;;4.07;;
18340;SDS011;9296;48.084;16.352;2022-08-05T12:05:39;5.15;;;4.03;;
18340;SDS011;9296;48.084;16.352;2022-08-05T12:08:06;8.77;;;4.63;;
18340;SDS011;9296;48.084;16.352;2022-08-05T12:10:35;5.75;;;4.40;;
18340;SDS011;9296;48.084;16.352;2022-08-05T12:13:04;5.20;;;4.10;;
18340;SDS011;9296;48.084;16.352;2022-08-05T12:18:36;5.50;;;4.15;;
18340;SDS011;9296;48.084;16.352;2022-08-05T12:21:10;4.60;;;4.20;;
18340;SDS011;9296;48.084;16.352;2022-08-05T12:23:40;4.88;;;4.22;;
18340;SDS011;9296;48.084;16.352;2022-08-05T12:26:17;5.32;;;4.82;;
18340;SDS011;9296;48.084;16.352;2022-08-05T12:28:44;5.15;;;4.50;;
18340;SDS011;9296;48.084;16.352;2022-08-05T12:31:11;4.72;;;4.22;;
18340;SDS011;9296;48.084;16.352;2022-08-05T12:33:40;4.40;;;4.00;;
18340;SDS011;9296;48.084;16.352;2022-08-05T12:36:08;4.72;;;4.18;;
18340;SDS011;9296;48.084;16.352;2022-08-05T12:38:35;6.30;;;4.30;;
18340;SDS011;9296;48.084;16.352;2022-08-05T12:41:06;4.47;;;4.00;;
18340;SDS011;9296;48.084;16.352;2022-08-05T12:46:21;5.00;;;3.90;;
18340;SDS011;9296;48.084;16.352;2022-08-05T12:48:58;6.22;;;4.28;;
18340;SDS011;9296;48.084;16.352;2022-08-05T12:51:25;6.13;;;4.30;;
18340;SDS011;9296;48.084;16.352;2022-08-05T12:53:59;4.15;;;3.70;;
18340;SDS011;9296;48.084;16.352;2022-08-05T12:56:28;3.92;;;3.40;;
18340;SDS011;9296;48.084;16.352;2022-08-05T13:05:04;4.15;;;2.58;;
18340;SDS011;9296;48.084;16.352;2022-08-05T13:07:31;4.82;;;2.70;;
18340;SDS011;9296;48.084;16.352;2022-08-05T13:09:59;4.25;;;2.70;;
18340;SDS011;9296;48.084;16.352;2022-08-05T13:12:27;4.22;;;2.72;;
18340;SDS011;9296;48.084;16.352;2022-08-05T13:14:55;4.47;;;2.85;;
18340;SDS011;9296;48.084;16.352;2022-08-05T13:17:23;2.67;;;2.55;;
18340;SDS011;9296;48.084;16.352;2022-08-05T13:19:57;3.03;;;2.83;;
18340;SDS011;9296;48.084;16.352;2022-08-05T13:22:24;3.85;;;2.65;;
18340;SDS011;9296;48.084;16.352;2022-08-05T13:24:52;3.15;;;2.85;;
18340;SDS011;9296;48.084;16.352;2022-08-05T13:27:23;20.40;;;4.85;;
18340;SDS011;9296;48.084;16.352;2022-08-05T13:32:55;3.20;;;2.90;;
18340;SDS011;9296;48.084;16.352;2022-08-05T13:35:22;3.78;;;3.20;;
18340;SDS011;9296;48.084;16.352;2022-08-05T13:37:49;2.80;;;2.60;;
18340;SDS011;9296;48.084;16.352;2022-08-05T13:40:16;2.83;;;2.63;;
18340;SDS011;9296;48.084;16.352;2022-08-05T13:42:43;3.15;;;2.83;;
18340;SDS011;9296;48.084;16.352;2022-08-05T13:45:11;3.03;;;2.70;;
18340;SDS011;9296;48.084;16.352;2022-08-05T13:47:38;3.55;;;3.20;;
18340;SDS011;9296;48.084;16.352;2022-08-05T13:50:09;3.00;;;2.80;;
18340;SDS011;9296;48.084;16.352;2022-08-05T13:52:37;3.10;;;2.70;;
18340;SDS011;9296;48.084;16.352;2022-08-05T13:55:04;4.40;;;2.90;;
18340;SDS011;9296;48.084;16.352;2022-08-05T13:57:31;4.22;;;3.03;;
18340;SDS011;9296;48.084;16.352;2022-08-05T14:03:03;3.42;;;3.13;;
18340;SDS011;9296;48.084;16.352;2022-08-05T14:05:31;4.32;;;3.30;;
18340;SDS011;9296;48.084;16.352;2022-08-05T14:07:58;3.53;;;3.22;;
18340;SDS011;9296;48.084;16.352;2022-08-05T14:10:25;3.63;;;3.00;;
18340;SDS011;9296;48.084;16.352;2022-08-05T14:12:52;3.60;;;3.30;;
18340;SDS011;9296;48.084;16.352;2022-08-05T14:15:19;3.80;;;3.38;;
18340;SDS011;9296;48.084;16.352;2022-08-05T14:17:46;4.60;;;3.28;;
18340;SDS011;9296;48.084;16.352;2022-08-05T14:20:13;3.53;;;3.22;;
18340;SDS011;9296;48.084;16.352;2022-08-05T14:22:42;4.25;;;3.50;;
18340;SDS011;9296;48.084;16.352;2022-08-05T14:25:09;4.07;;;3.13;;
18340;SDS011;9296;48.084;16.352;2022-08-05T14:27:38;3.70;;;3.40;;
18340;SDS011;9296;48.084;16.352;2022-08-05T14:30:05;3.80;;;3.35;;
18340;SDS011;9296;48.084;16.352;2022-08-05T14:32:33;4.95;;;3.00;;
18340;SDS011;9296;48.084;16.352;2022-08-05T14:35:01;3.78;;;3.47;;
18340;SDS011;9296;48.084;16.352;2022-08-05T14:37:28;3.42;;;3.13;;
18340;SDS011;9296;48.084;16.352;2022-08-05T14:39:57;3.83;;;3.50;;
18340;SDS011;9296;48.084;16.352;2022-08-05T14:42:24;3.78;;;3.25;;
18340;SDS011;9296;48.084;16.352;2022-08-05T14:50:47;3.92;;;3.55;;
18340;SDS011;9296;48.084;16.352;2022-08-05T14:53:14;3.75;;;3.45;;
18340;SDS011;9296;48.084;16.352;2022-08-05T14:55:43;3.70;;;3.33;;
18340;SDS011;9296;48.084;16.352;2022-08-05T14:58:10;3.85;;;3.13;;
18340;SDS011;9296;48.084;16.352;2022-08-05T15:00:37;3.20;;;3.00;;
18340;SDS011;9296;48.084;16.352;2022-08-05T15:03:05;3.25;;;2.95;;
18340;SDS011;9296;48.084;16.352;2022-08-05T15:05:33;3.70;;;3.30;;
18340;SDS011;9296;48.084;16.352;2022-08-05T15:08:00;5.07;;;3.50;;
18340;SDS011;9296;48.084;16.352;2022-08-05T15:10:27;3.72;;;3.42;;
18340;SDS011;9296;48.084;16.352;2022-08-05T15:12:56;4.22;;;3.60;;
18340;SDS011;9296;48.084;16.352;2022-08-05T15:15:26;3.80;;;3.38;;
18340;SDS011;9296;48.084;16.352;2022-08-05T15:17:53;4.10;;;3.40;;
18340;SDS011;9296;48.084;16.352;2022-08-05T15:20:20;3.72;;;3.42;;
18340;SDS011;9296;48.084;16.352;2022-08-05T15:22:49;5.43;;;3.63;;
18340;SDS011;9296;48.084;16.352;2022-08-05T17:29:36;4.20;;;3.90;;
18340;SDS011;9296;48.084;16.352;2022-08-05T17:32:04;5.72;;;4.18;;
18340;SDS011;9296;48.084;16.352;2022-08-05T17:34:31;5.07;;;4.35;;
18340;SDS011;9296;48.084;16.352;2022-08-05T17:36:58;4.15;;;3.58;;
18340;SDS011;9296;48.084;16.352;2022-08-05T17:39:25;5.40;;;4.13;;
18340;SDS011;9296;48.084;16.352;2022-08-05T17:41:53;4.60;;;4.00;;
18340;SDS011;9296;48.084;16.352;2022-08-05T17:44:20;4.32;;;3.92;;
18340;SDS011;9296;48.084;16.352;2022-08-05T17:47:07;4.38;;;4.03;;
18340;SDS011;9296;48.084;16.352;2022-08-05T17:49:34;4.10;;;3.80;;
18340;SDS011;9296;48.084;16.352;2022-08-05T17:52:01;4.20;;;3.90;;
18340;SDS011;9296;48.084;16.352;2022-08-05T17:54:29;4.35;;;3.88;;
18340;SDS011;9296;48.084;16.352;2022-08-05T17:56:57;4.32;;;3.90;;
18340;SDS011;9296;48.084;16.352;2022-08-05T17:59:25;4.75;;;3.80;;
18340;SDS011;9296;48.084;16.352;2022-08-05T18:01:52;5.25;;;3.97;;
18340;SDS011;9296;48.084;16.352;2022-08-05T18:04:20;4.57;;;4.28;;
18340;SDS011;9296;48.084;16.352;2022-08-05T18:06:48;4.82;;;4.43;;
18340;SDS011;9296;48.084;16.352;2022-08-05T18:09:15;5.68;;;4.88;;
18340;SDS011;9296;48.084;16.352;2022-08-05T18:11:42;4.70;;;4.30;;
18340;SDS011;9296;48.084;16.352;2022-08-05T18:14:09;5.13;;;4.63;;
18340;SDS011;9296;48.084;16.352;2022-08-05T18:22:27;6.93;;;4.30;;
18340;SDS011;9296;48.084;16.352;2022-08-05T18:24:57;5.35;;;4.90;;
18340;SDS011;9296;48.084;16.352;2022-08-05T18:27:24;7.75;;;6.70;;
18340;SDS011;9296;48.084;16.352;2022-08-05T18:32:54;9.68;;;7.15;;
18340;SDS011;9296;48.084;16.352;2022-08-05T18:35:21;9.23;;;8.43;;
18340;SDS011;9296;48.084;16.352;2022-08-05T18:37:50;6.85;;;6.13;;
18340;SDS011;9296;48.084;16.352;2022-08-05T18:40:17;6.20;;;5.63;;
18340;SDS011;9296;48.084;16.352;2022-08-05T18:42:45;6.80;;;6.20;;
18340;SDS011;9296;48.084;16.352;2022-08-05T18:45:12;5.95;;;5.45;;
18340;SDS011;9296;48.084;16.352;2022-08-05T18:47:39;7.93;;;5.78;;
18340;SDS011;9296;48.084;16.352;2022-08-05T18:50:06;8.20;;;5.90;;
18340;SDS011;9296;48.084;16.352;2022-08-05T18:52:53;6.28;;;5.68;;